Terminal Aerodrome Forecast
Issued by NWS Paducah, KY

Home | Current Version | Previous Version | Text Only | Print | Product List | Glossary On
Versions: 1 2 3 4 5 6 7 8 9 10 11 12 13 14 15 16
446
FTUS43 KPAH 252333
TAFPAH
TAF
KPAH 252333Z 2600/2624 16011G18KT P6SM -SHRA SCT035 BKN060
     FM260200 20005KT P6SM SCT060
     FM261400 22007KT P6SM BKN035
      TEMPO 2614/2618 BKN025
     FM261800 23011G17KT P6SM BKN040=

USA.gov is the U.S. government's official web portal to all federal, state and local government web resources and services.